sensor_id;sensor_type;location;lat;lon;timestamp;P1;durP1;ratioP1;P2;durP2;ratioP2
74158;SDS011;62511;47.970;11.774;2023-04-24T00:00:22;1.10;;;0.70;;
74158;SDS011;62511;47.970;11.774;2023-04-24T00:02:51;0.85;;;0.60;;
74158;SDS011;62511;47.970;11.774;2023-04-24T00:05:21;1.65;;;0.50;;
74158;SDS011;62511;47.970;11.774;2023-04-24T00:07:48;1.30;;;0.60;;
74158;SDS011;62511;47.970;11.774;2023-04-24T00:10:18;1.23;;;0.60;;
74158;SDS011;62511;47.970;11.774;2023-04-24T00:12:45;2.05;;;0.70;;
74158;SDS011;62511;47.970;11.774;2023-04-24T00:15:18;0.55;;;0.50;;
74158;SDS011;62511;47.970;11.774;2023-04-24T00:17:44;1.02;;;0.68;;
74158;SDS011;62511;47.970;11.774;2023-04-24T00:20:15;1.83;;;0.50;;
74158;SDS011;62511;47.970;11.774;2023-04-24T00:22:44;0.30;;;0.30;;
74158;SDS011;62511;47.970;11.774;2023-04-24T00:25:10;0.50;;;0.45;;
74158;SDS011;62511;47.970;11.774;2023-04-24T00:27:36;0.90;;;0.65;;
74158;SDS011;62511;47.970;11.774;2023-04-24T00:30:16;0.63;;;0.50;;
74158;SDS011;62511;47.970;11.774;2023-04-24T00:32:42;0.90;;;0.47;;
74158;SDS011;62511;47.970;11.774;2023-04-24T00:35:13;2.25;;;0.70;;
74158;SDS011;62511;47.970;11.774;2023-04-24T00:37:40;0.70;;;0.45;;
74158;SDS011;62511;47.970;11.774;2023-04-24T00:40:09;0.80;;;0.50;;
74158;SDS011;62511;47.970;11.774;2023-04-24T00:42:36;0.30;;;0.30;;
74158;SDS011;62511;47.970;11.774;2023-04-24T00:45:02;0.60;;;0.35;;
74158;SDS011;62511;47.970;11.774;2023-04-24T00:47:32;0.30;;;0.30;;
74158;SDS011;62511;47.970;11.774;2023-04-24T00:50:01;0.60;;;0.50;;
74158;SDS011;62511;47.970;11.774;2023-04-24T00:52:30;0.40;;;0.40;;
74158;SDS011;62511;47.970;11.774;2023-04-24T00:55:00;1.77;;;0.52;;
74158;SDS011;62511;47.970;11.774;2023-04-24T00:57:27;0.45;;;0.35;;
74158;SDS011;62511;47.970;11.774;2023-04-24T00:59:56;1.05;;;0.40;;
74158;SDS011;62511;47.970;11.774;2023-04-24T01:05:00;0.28;;;0.22;;
74158;SDS011;62511;47.970;11.774;2023-04-24T01:07:26;0.20;;;0.20;;
74158;SDS011;62511;47.970;11.774;2023-04-24T01:09:54;0.55;;;0.47;;
74158;SDS011;62511;47.970;11.774;2023-04-24T01:12:21;0.35;;;0.32;;
74158;SDS011;62511;47.970;11.774;2023-04-24T01:14:47;0.65;;;0.30;;
74158;SDS011;62511;47.970;11.774;2023-04-24T01:17:15;0.32;;;0.25;;
74158;SDS011;62511;47.970;11.774;2023-04-24T01:19:42;0.85;;;0.50;;
74158;SDS011;62511;47.970;11.774;2023-04-24T01:22:13;0.65;;;0.45;;
74158;SDS011;62511;47.970;11.774;2023-04-24T01:25:00;0.40;;;0.40;;
74158;SDS011;62511;47.970;11.774;2023-04-24T01:29:54;0.20;;;0.20;;
74158;SDS011;62511;47.970;11.774;2023-04-24T01:32:21;1.02;;;0.50;;
74158;SDS011;62511;47.970;11.774;2023-04-24T01:34:50;0.35;;;0.30;;
74158;SDS011;62511;47.970;11.774;2023-04-24T01:37:17;0.43;;;0.40;;
74158;SDS011;62511;47.970;11.774;2023-04-24T01:39:43;0.25;;;0.20;;
74158;SDS011;62511;47.970;11.774;2023-04-24T01:42:12;0.85;;;0.40;;
74158;SDS011;62511;47.970;11.774;2023-04-24T01:44:41;0.47;;;0.40;;
74158;SDS011;62511;47.970;11.774;2023-04-24T01:47:08;0.50;;;0.30;;
74158;SDS011;62511;47.970;11.774;2023-04-24T01:49:37;0.57;;;0.40;;
74158;SDS011;62511;47.970;11.774;2023-04-24T01:52:05;0.40;;;0.40;;
74158;SDS011;62511;47.970;11.774;2023-04-24T01:54:35;0.50;;;0.32;;
74158;SDS011;62511;47.970;11.774;2023-04-24T01:57:03;0.40;;;0.30;;
74158;SDS011;62511;47.970;11.774;2023-04-24T01:59:30;0.60;;;0.35;;
74158;SDS011;62511;47.970;11.774;2023-04-24T02:04:25;0.30;;;0.30;;
74158;SDS011;62511;47.970;11.774;2023-04-24T02:06:52;2.17;;;0.20;;
74158;SDS011;62511;47.970;11.774;2023-04-24T02:09:21;0.88;;;0.30;;
74158;SDS011;62511;47.970;11.774;2023-04-24T02:11:48;0.55;;;0.40;;
74158;SDS011;62511;47.970;11.774;2023-04-24T02:14:15;0.45;;;0.40;;
74158;SDS011;62511;47.970;11.774;2023-04-24T02:16:45;1.48;;;0.50;;
74158;SDS011;62511;47.970;11.774;2023-04-24T02:19:11;0.40;;;0.40;;
74158;SDS011;62511;47.970;11.774;2023-04-24T02:21:50;3.42;;;0.47;;
74158;SDS011;62511;47.970;11.774;2023-04-24T02:24:28;0.40;;;0.30;;
74158;SDS011;62511;47.970;11.774;2023-04-24T02:27:00;0.50;;;0.40;;
74158;SDS011;62511;47.970;11.774;2023-04-24T02:29:28;0.22;;;0.22;;
74158;SDS011;62511;47.970;11.774;2023-04-24T02:31:58;1.75;;;0.30;;
74158;SDS011;62511;47.970;11.774;2023-04-24T02:34:40;0.30;;;0.30;;
74158;SDS011;62511;47.970;11.774;2023-04-24T02:37:21;1.05;;;0.40;;
74158;SDS011;62511;47.970;11.774;2023-04-24T02:39:53;0.30;;;0.30;;
74158;SDS011;62511;47.970;11.774;2023-04-24T02:42:22;0.22;;;0.22;;
74158;SDS011;62511;47.970;11.774;2023-04-24T02:44:52;1.10;;;0.40;;
74158;SDS011;62511;47.970;11.774;2023-04-24T02:47:18;0.65;;;0.35;;
74158;SDS011;62511;47.970;11.774;2023-04-24T02:49:45;1.48;;;0.40;;
74158;SDS011;62511;47.970;11.774;2023-04-24T02:52:13;1.27;;;0.52;;
74158;SDS011;62511;47.970;11.774;2023-04-24T02:54:43;0.40;;;0.40;;
74158;SDS011;62511;47.970;11.774;2023-04-24T02:57:09;2.10;;;0.47;;
74158;SDS011;62511;47.970;11.774;2023-04-24T02:59:36;3.53;;;0.60;;
74158;SDS011;62511;47.970;11.774;2023-04-24T03:02:06;2.47;;;0.50;;
74158;SDS011;62511;47.970;11.774;2023-04-24T03:07:04;0.40;;;0.20;;
74158;SDS011;62511;47.970;11.774;2023-04-24T03:09:34;2.33;;;0.30;;
74158;SDS011;62511;47.970;11.774;2023-04-24T03:12:01;0.40;;;0.40;;
74158;SDS011;62511;47.970;11.774;2023-04-24T03:14:55;0.28;;;0.28;;
74158;SDS011;62511;47.970;11.774;2023-04-24T03:17:21;0.77;;;0.30;;
74158;SDS011;62511;47.970;11.774;2023-04-24T03:19:48;0.30;;;0.30;;
74158;SDS011;62511;47.970;11.774;2023-04-24T03:22:17;0.50;;;0.38;;
74158;SDS011;62511;47.970;11.774;2023-04-24T03:24:44;0.38;;;0.30;;
74158;SDS011;62511;47.970;11.774;2023-04-24T03:27:10;0.50;;;0.40;;
74158;SDS011;62511;47.970;11.774;2023-04-24T03:29:37;0.60;;;0.40;;
74158;SDS011;62511;47.970;11.774;2023-04-24T03:32:03;0.30;;;0.30;;
74158;SDS011;62511;47.970;11.774;2023-04-24T03:34:29;0.20;;;0.20;;
74158;SDS011;62511;47.970;11.774;2023-04-24T03:36:56;0.50;;;0.32;;
74158;SDS011;62511;47.970;11.774;2023-04-24T03:39:28;0.47;;;0.30;;
74158;SDS011;62511;47.970;11.774;2023-04-24T03:41:58;0.50;;;0.50;;
74158;SDS011;62511;47.970;11.774;2023-04-24T03:44:25;0.70;;;0.50;;
74158;SDS011;62511;47.970;11.774;2023-04-24T03:46:51;0.20;;;0.20;;
74158;SDS011;62511;47.970;11.774;2023-04-24T03:49:17;0.40;;;0.40;;
74158;SDS011;62511;47.970;11.774;2023-04-24T03:51:43;0.95;;;0.50;;
74158;SDS011;62511;47.970;11.774;2023-04-24T03:54:09;0.25;;;0.20;;
74158;SDS011;62511;47.970;11.774;2023-04-24T03:56:44;0.20;;;0.20;;
74158;SDS011;62511;47.970;11.774;2023-04-24T03:59:13;0.50;;;0.22;;
74158;SDS011;62511;47.970;11.774;2023-04-24T04:01:40;0.10;;;0.10;;
74158;SDS011;62511;47.970;11.774;2023-04-24T04:04:10;0.65;;;0.20;;
74158;SDS011;62511;47.970;11.774;2023-04-24T04:06:48;1.35;;;0.20;;
74158;SDS011;62511;47.970;11.774;2023-04-24T04:09:26;1.58;;;0.32;;
74158;SDS011;62511;47.970;11.774;2023-04-24T04:11:52;13.75;;;5.55;;
74158;SDS011;62511;47.970;11.774;2023-04-24T04:14:18;9.85;;;3.75;;
74158;SDS011;62511;47.970;11.774;2023-04-24T04:16:45;9.05;;;4.00;;
74158;SDS011;62511;47.970;11.774;2023-04-24T04:19:15;6.97;;;3.40;;
74158;SDS011;62511;47.970;11.774;2023-04-24T04:21:41;9.70;;;3.63;;
74158;SDS011;62511;47.970;11.774;2023-04-24T04:24:10;6.38;;;1.92;;
74158;SDS011;62511;47.970;11.774;2023-04-24T04:26:36;3.60;;;1.58;;
74158;SDS011;62511;47.970;11.774;2023-04-24T04:29:11;2.75;;;1.55;;
74158;SDS011;62511;47.970;11.774;2023-04-24T04:31:37;2.15;;;1.13;;
74158;SDS011;62511;47.970;11.774;2023-04-24T04:34:25;0.80;;;0.70;;
74158;SDS011;62511;47.970;11.774;2023-04-24T04:36:51;1.10;;;0.70;;
74158;SDS011;62511;47.970;11.774;2023-04-24T04:39:18;1.17;;;0.85;;
74158;SDS011;62511;47.970;11.774;2023-04-24T04:41:44;0.95;;;0.50;;
74158;SDS011;62511;47.970;11.774;2023-04-24T04:44:16;0.80;;;0.70;;
74158;SDS011;62511;47.970;11.774;2023-04-24T04:46:43;1.55;;;0.60;;
74158;SDS011;62511;47.970;11.774;2023-04-24T04:49:15;0.45;;;0.45;;
74158;SDS011;62511;47.970;11.774;2023-04-24T04:51:42;0.75;;;0.65;;
74158;SDS011;62511;47.970;11.774;2023-04-24T04:54:09;1.10;;;0.80;;
74158;SDS011;62511;47.970;11.774;2023-04-24T04:56:38;2.22;;;1.10;;
74158;SDS011;62511;47.970;11.774;2023-04-24T04:59:07;8.88;;;3.35;;
74158;SDS011;62511;47.970;11.774;2023-04-24T05:01:33;15.20;;;5.15;;
74158;SDS011;62511;47.970;11.774;2023-04-24T05:06:27;9.88;;;4.47;;
74158;SDS011;62511;47.970;11.774;2023-04-24T05:08:53;6.68;;;3.60;;
74158;SDS011;62511;47.970;11.774;2023-04-24T05:11:22;3.28;;;1.80;;
74158;SDS011;62511;47.970;11.774;2023-04-24T05:13:50;0.85;;;0.65;;
74158;SDS011;62511;47.970;11.774;2023-04-24T05:16:17;1.45;;;0.73;;
74158;SDS011;62511;47.970;11.774;2023-04-24T05:18:43;1.00;;;0.90;;
74158;SDS011;62511;47.970;11.774;2023-04-24T05:21:11;0.63;;;0.63;;
74158;SDS011;62511;47.970;11.774;2023-04-24T05:23:37;1.98;;;0.73;;
74158;SDS011;62511;47.970;11.774;2023-04-24T05:26:03;0.50;;;0.50;;
74158;SDS011;62511;47.970;11.774;2023-04-24T05:28:29;0.38;;;0.25;;
74158;SDS011;62511;47.970;11.774;2023-04-24T05:30:57;1.65;;;0.57;;
74158;SDS011;62511;47.970;11.774;2023-04-24T05:33:24;2.92;;;1.10;;
74158;SDS011;62511;47.970;11.774;2023-04-24T05:35:50;2.17;;;0.60;;
74158;SDS011;62511;47.970;11.774;2023-04-24T05:38:18;2.35;;;0.43;;
74158;SDS011;62511;47.970;11.774;2023-04-24T05:40:45;1.23;;;0.38;;
74158;SDS011;62511;47.970;11.774;2023-04-24T05:43:11;0.50;;;0.40;;
74158;SDS011;62511;47.970;11.774;2023-04-24T05:45:38;0.57;;;0.20;;
74158;SDS011;62511;47.970;11.774;2023-04-24T05:48:05;0.43;;;0.40;;
74158;SDS011;62511;47.970;11.774;2023-04-24T05:50:32;1.67;;;0.35;;
74158;SDS011;62511;47.970;11.774;2023-04-24T05:52:58;0.68;;;0.40;;
74158;SDS011;62511;47.970;11.774;2023-04-24T05:55:30;0.50;;;0.40;;
74158;SDS011;62511;47.970;11.774;2023-04-24T05:57:58;0.73;;;0.30;;
74158;SDS011;62511;47.970;11.774;2023-04-24T06:00:34;0.55;;;0.35;;
74158;SDS011;62511;47.970;11.774;2023-04-24T06:03:00;0.40;;;0.40;;
74158;SDS011;62511;47.970;11.774;2023-04-24T06:05:28;0.10;;;0.10;;
74158;SDS011;62511;47.970;11.774;2023-04-24T06:07:55;0.55;;;0.22;;
74158;SDS011;62511;47.970;11.774;2023-04-24T06:10:21;0.25;;;0.20;;
74158;SDS011;62511;47.970;11.774;2023-04-24T06:12:47;0.20;;;0.20;;
74158;SDS011;62511;47.970;11.774;2023-04-24T06:15:14;0.50;;;0.30;;
74158;SDS011;62511;47.970;11.774;2023-04-24T06:17:41;0.30;;;0.30;;
74158;SDS011;62511;47.970;11.774;2023-04-24T06:20:14;0.10;;;0.10;;
74158;SDS011;62511;47.970;11.774;2023-04-24T06:25:09;0.70;;;0.40;;
74158;SDS011;62511;47.970;11.774;2023-04-24T06:27:35;3.47;;;0.55;;
74158;SDS011;62511;47.970;11.774;2023-04-24T06:30:20;0.20;;;0.20;;
74158;SDS011;62511;47.970;11.774;2023-04-24T06:32:50;0.35;;;0.30;;
74158;SDS011;62511;47.970;11.774;2023-04-24T06:35:16;0.20;;;0.20;;
74158;SDS011;62511;47.970;11.774;2023-04-24T06:37:43;0.20;;;0.20;;
74158;SDS011;62511;47.970;11.774;2023-04-24T06:40:13;0.10;;;0.10;;
74158;SDS011;62511;47.970;11.774;2023-04-24T06:42:39;1.55;;;0.60;;
74158;SDS011;62511;47.970;11.774;2023-04-24T06:45:09;0.45;;;0.30;;
74158;SDS011;62511;47.970;11.774;2023-04-24T06:47:38;0.10;;;0.10;;
74158;SDS011;62511;47.970;11.774;2023-04-24T06:50:28;0.38;;;0.10;;
74158;SDS011;62511;47.970;11.774;2023-04-24T06:52:54;0.17;;;0.17;;
74158;SDS011;62511;47.970;11.774;2023-04-24T06:55:21;0.75;;;0.10;;
74158;SDS011;62511;47.970;11.774;2023-04-24T06:57:47;0.15;;;0.15;;
74158;SDS011;62511;47.970;11.774;2023-04-24T07:00:13;0.13;;;0.13;;
74158;SDS011;62511;47.970;11.774;2023-04-24T07:02:40;0.20;;;0.20;;
74158;SDS011;62511;47.970;11.774;2023-04-24T07:05:06;0.77;;;0.20;;
74158;SDS011;62511;47.970;11.774;2023-04-24T07:07:34;1.90;;;0.20;;
74158;SDS011;62511;47.970;11.774;2023-04-24T07:10:02;0.10;;;0.10;;
74158;SDS011;62511;47.970;11.774;2023-04-24T07:12:38;0.10;;;0.10;;
74158;SDS011;62511;47.970;11.774;2023-04-24T07:15:09;0.00;;;0.00;;
74158;SDS011;62511;47.970;11.774;2023-04-24T07:17:37;0.28;;;0.22;;
74158;SDS011;62511;47.970;11.774;2023-04-24T07:20:13;1.48;;;0.50;;
74158;SDS011;62511;47.970;11.774;2023-04-24T07:25:06;1.02;;;0.20;;
74158;SDS011;62511;47.970;11.774;2023-04-24T07:27:54;0.20;;;0.10;;
74158;SDS011;62511;47.970;11.774;2023-04-24T07:30:20;0.20;;;0.20;;
74158;SDS011;62511;47.970;11.774;2023-04-24T07:32:47;0.30;;;0.20;;
74158;SDS011;62511;47.970;11.774;2023-04-24T07:35:13;0.52;;;0.32;;
74158;SDS011;62511;47.970;11.774;2023-04-24T07:37:42;0.10;;;0.10;;
74158;SDS011;62511;47.970;11.774;2023-04-24T07:40:11;0.32;;;0.30;;
74158;SDS011;62511;47.970;11.774;2023-04-24T07:42:38;0.10;;;0.10;;
74158;SDS011;62511;47.970;11.774;2023-04-24T07:45:09;0.10;;;0.10;;
74158;SDS011;62511;47.970;11.774;2023-04-24T07:47:41;0.10;;;0.10;;
74158;SDS011;62511;47.970;11.774;2023-04-24T07:50:11;0.20;;;0.20;;
74158;SDS011;62511;47.970;11.774;2023-04-24T07:52:40;1.00;;;0.32;;
74158;SDS011;62511;47.970;11.774;2023-04-24T07:55:13;0.10;;;0.10;;
74158;SDS011;62511;47.970;11.774;2023-04-24T07:57:40;0.20;;;0.20;;
74158;SDS011;62511;47.970;11.774;2023-04-24T08:00:07;0.20;;;0.20;;
74158;SDS011;62511;47.970;11.774;2023-04-24T08:02:35;1.05;;;0.50;;
74158;SDS011;62511;47.970;11.774;2023-04-24T08:05:06;0.30;;;0.30;;
74158;SDS011;62511;47.970;11.774;2023-04-24T08:07:41;0.10;;;0.10;;
74158;SDS011;62511;47.970;11.774;2023-04-24T08:10:30;0.35;;;0.25;;
74158;SDS011;62511;47.970;11.774;2023-04-24T08:12:56;0.30;;;0.20;;
74158;SDS011;62511;47.970;11.774;2023-04-24T08:15:27;0.10;;;0.10;;
74158;SDS011;62511;47.970;11.774;2023-04-24T08:18:01;2.33;;;0.55;;
74158;SDS011;62511;47.970;11.774;2023-04-24T08:20:33;3.20;;;1.05;;
74158;SDS011;62511;47.970;11.774;2023-04-24T08:23:19;0.85;;;0.60;;
74158;SDS011;62511;47.970;11.774;2023-04-24T08:25:47;1.85;;;0.35;;
74158;SDS011;62511;47.970;11.774;2023-04-24T08:30:45;0.17;;;0.13;;
74158;SDS011;62511;47.970;11.774;2023-04-24T08:33:12;0.22;;;0.22;;
74158;SDS011;62511;47.970;11.774;2023-04-24T08:35:38;0.20;;;0.20;;
74158;SDS011;62511;47.970;11.774;2023-04-24T08:38:07;0.50;;;0.30;;
74158;SDS011;62511;47.970;11.774;2023-04-24T08:40:34;0.17;;;0.17;;
74158;SDS011;62511;47.970;11.774;2023-04-24T08:43:00;0.30;;;0.30;;
74158;SDS011;62511;47.970;11.774;2023-04-24T08:45:26;0.20;;;0.20;;
74158;SDS011;62511;47.970;11.774;2023-04-24T08:47:53;0.30;;;0.13;;
74158;SDS011;62511;47.970;11.774;2023-04-24T08:50:20;0.20;;;0.10;;
74158;SDS011;62511;47.970;11.774;2023-04-24T08:52:46;2.30;;;0.20;;
74158;SDS011;62511;47.970;11.774;2023-04-24T08:55:13;1.55;;;0.17;;
74158;SDS011;62511;47.970;11.774;2023-04-24T08:57:49;0.17;;;0.17;;
74158;SDS011;62511;47.970;11.774;2023-04-24T09:00:22;0.10;;;0.10;;
74158;SDS011;62511;47.970;11.774;2023-04-24T09:02:49;0.20;;;0.10;;
74158;SDS011;62511;47.970;11.774;2023-04-24T09:05:18;0.80;;;0.30;;
74158;SDS011;62511;47.970;11.774;2023-04-24T09:07:49;0.20;;;0.20;;
74158;SDS011;62511;47.970;11.774;2023-04-24T09:12:47;0.17;;;0.17;;
74158;SDS011;62511;47.970;11.774;2023-04-24T09:15:13;0.17;;;0.17;;
74158;SDS011;62511;47.970;11.774;2023-04-24T09:17:40;0.32;;;0.30;;
74158;SDS011;62511;47.970;11.774;2023-04-24T09:20:06;0.47;;;0.40;;
74158;SDS011;62511;47.970;11.774;2023-04-24T09:22:33;1.13;;;0.40;;
74158;SDS011;62511;47.970;11.774;2023-04-24T09:25:04;0.20;;;0.10;;
74158;SDS011;62511;47.970;11.774;2023-04-24T09:27:32;0.45;;;0.20;;
74158;SDS011;62511;47.970;11.774;2023-04-24T09:30:10;0.75;;;0.50;;
74158;SDS011;62511;47.970;11.774;2023-04-24T09:32:37;0.20;;;0.20;;
74158;SDS011;62511;47.970;11.774;2023-04-24T09:37:36;0.20;;;0.20;;
74158;SDS011;62511;47.970;11.774;2023-04-24T09:40:19;0.10;;;0.10;;
74158;SDS011;62511;47.970;11.774;2023-04-24T09:42:46;0.30;;;0.30;;
74158;SDS011;62511;47.970;11.774;2023-04-24T09:45:18;0.20;;;0.20;;
74158;SDS011;62511;47.970;11.774;2023-04-24T09:47:44;0.20;;;0.15;;
74158;SDS011;62511;47.970;11.774;2023-04-24T09:52:40;0.65;;;0.45;;
74158;SDS011;62511;47.970;11.774;2023-04-24T09:57:32;0.50;;;0.30;;
74158;SDS011;62511;47.970;11.774;2023-04-24T09:59:59;0.40;;;0.20;;
74158;SDS011;62511;47.970;11.774;2023-04-24T10:02:26;1.38;;;0.28;;
74158;SDS011;62511;47.970;11.774;2023-04-24T10:04:56;0.50;;;0.40;;
74158;SDS011;62511;47.970;11.774;2023-04-24T10:07:27;0.88;;;0.45;;
74158;SDS011;62511;47.970;11.774;2023-04-24T10:09:53;0.45;;;0.40;;
74158;SDS011;62511;47.970;11.774;2023-04-24T10:12:21;0.38;;;0.38;;
74158;SDS011;62511;47.970;11.774;2023-04-24T10:14:49;0.30;;;0.30;;
74158;SDS011;62511;47.970;11.774;2023-04-24T10:17:15;0.40;;;0.40;;
74158;SDS011;62511;47.970;11.774;2023-04-24T10:19:48;1.55;;;0.30;;
74158;SDS011;62511;47.970;11.774;2023-04-24T10:22:20;0.40;;;0.40;;
74158;SDS011;62511;47.970;11.774;2023-04-24T10:24:48;0.55;;;0.35;;
74158;SDS011;62511;47.970;11.774;2023-04-24T10:27:15;0.30;;;0.30;;
74158;SDS011;62511;47.970;11.774;2023-04-24T10:29:46;0.50;;;0.47;;
74158;SDS011;62511;47.970;11.774;2023-04-24T10:32:13;1.02;;;0.52;;
74158;SDS011;62511;47.970;11.774;2023-04-24T10:34:40;1.88;;;0.90;;
74158;SDS011;62511;47.970;11.774;2023-04-24T10:37:06;0.73;;;0.32;;
74158;SDS011;62511;47.970;11.774;2023-04-24T10:39:38;1.58;;;0.57;;
74158;SDS011;62511;47.970;11.774;2023-04-24T10:42:16;0.70;;;0.50;;
74158;SDS011;62511;47.970;11.774;2023-04-24T10:44:42;0.57;;;0.32;;
74158;SDS011;62511;47.970;11.774;2023-04-24T10:47:15;1.92;;;0.93;;
74158;SDS011;62511;47.970;11.774;2023-04-24T10:49:41;0.40;;;0.40;;
74158;SDS011;62511;47.970;11.774;2023-04-24T10:52:09;0.90;;;0.60;;
74158;SDS011;62511;47.970;11.774;2023-04-24T10:54:47;0.73;;;0.52;;
74158;SDS011;62511;47.970;11.774;2023-04-24T10:57:29;0.63;;;0.52;;
74158;SDS011;62511;47.970;11.774;2023-04-24T11:02:45;0.40;;;0.30;;
74158;SDS011;62511;47.970;11.774;2023-04-24T11:05:17;0.93;;;0.50;;
74158;SDS011;62511;47.970;11.774;2023-04-24T11:10:29;0.40;;;0.40;;
74158;SDS011;62511;47.970;11.774;2023-04-24T11:12:58;0.40;;;0.30;;
74158;SDS011;62511;47.970;11.774;2023-04-24T11:15:25;0.90;;;0.52;;
74158;SDS011;62511;47.970;11.774;2023-04-24T11:17:57;0.30;;;0.30;;
74158;SDS011;62511;47.970;11.774;2023-04-24T11:22:54;1.40;;;0.52;;
74158;SDS011;62511;47.970;11.774;2023-04-24T11:25:38;1.23;;;0.52;;
74158;SDS011;62511;47.970;11.774;2023-04-24T11:28:05;0.30;;;0.30;;
74158;SDS011;62511;47.970;11.774;2023-04-24T11:30:32;0.13;;;0.13;;
74158;SDS011;62511;47.970;11.774;2023-04-24T11:33:02;0.47;;;0.30;;
74158;SDS011;62511;47.970;11.774;2023-04-24T11:35:34;0.50;;;0.50;;
74158;SDS011;62511;47.970;11.774;2023-04-24T11:38:02;0.30;;;0.30;;
74158;SDS011;62511;47.970;11.774;2023-04-24T11:40:30;0.77;;;0.50;;
74158;SDS011;62511;47.970;11.774;2023-04-24T11:42:56;1.02;;;0.57;;
74158;SDS011;62511;47.970;11.774;2023-04-24T11:45:26;1.00;;;0.47;;
74158;SDS011;62511;47.970;11.774;2023-04-24T11:47:57;0.40;;;0.30;;
74158;SDS011;62511;47.970;11.774;2023-04-24T11:50:25;0.35;;;0.35;;
74158;SDS011;62511;47.970;11.774;2023-04-24T11:52:52;0.60;;;0.43;;
74158;SDS011;62511;47.970;11.774;2023-04-24T11:57:45;1.67;;;0.73;;
74158;SDS011;62511;47.970;11.774;2023-04-24T12:00:19;1.10;;;0.40;;
74158;SDS011;62511;47.970;11.774;2023-04-24T12:05:28;0.43;;;0.40;;
74158;SDS011;62511;47.970;11.774;2023-04-24T12:07:58;0.43;;;0.40;;
74158;SDS011;62511;47.970;11.774;2023-04-24T12:10:31;1.00;;;0.80;;
74158;SDS011;62511;47.970;11.774;2023-04-24T12:13:19;0.68;;;0.50;;
74158;SDS011;62511;47.970;11.774;2023-04-24T12:15:45;1.88;;;0.50;;
74158;SDS011;62511;47.970;11.774;2023-04-24T12:18:12;0.85;;;0.80;;
74158;SDS011;62511;47.970;11.774;2023-04-24T12:20:40;0.50;;;0.50;;
74158;SDS011;62511;47.970;11.774;2023-04-24T12:23:09;1.02;;;0.70;;
74158;SDS011;62511;47.970;11.774;2023-04-24T12:25:35;0.73;;;0.60;;
74158;SDS011;62511;47.970;11.774;2023-04-24T12:30:31;2.00;;;0.80;;
74158;SDS011;62511;47.970;11.774;2023-04-24T12:33:01;0.30;;;0.30;;
74158;SDS011;62511;47.970;11.774;2023-04-24T12:35:29;2.17;;;0.40;;
74158;SDS011;62511;47.970;11.774;2023-04-24T12:38:14;1.48;;;0.50;;
74158;SDS011;62511;47.970;11.774;2023-04-24T12:40:44;0.40;;;0.40;;
74158;SDS011;62511;47.970;11.774;2023-04-24T12:43:17;0.55;;;0.55;;
74158;SDS011;62511;47.970;11.774;2023-04-24T12:45:47;0.70;;;0.55;;
74158;SDS011;62511;47.970;11.774;2023-04-24T12:48:13;1.52;;;0.73;;
74158;SDS011;62511;47.970;11.774;2023-04-24T12:50:41;1.65;;;0.95;;
74158;SDS011;62511;47.970;11.774;2023-04-24T12:53:09;1.25;;;0.68;;
74158;SDS011;62511;47.970;11.774;2023-04-24T12:55:44;0.95;;;0.73;;
74158;SDS011;62511;47.970;11.774;2023-04-24T12:58:17;2.03;;;0.90;;
74158;SDS011;62511;47.970;11.774;2023-04-24T13:00:46;1.10;;;0.90;;
74158;SDS011;62511;47.970;11.774;2023-04-24T13:03:13;1.25;;;1.15;;
74158;SDS011;62511;47.970;11.774;2023-04-24T13:05:40;1.70;;;0.90;;
74158;SDS011;62511;47.970;11.774;2023-04-24T13:08:11;2.92;;;1.00;;
74158;SDS011;62511;47.970;11.774;2023-04-24T13:10:42;1.63;;;1.05;;
74158;SDS011;62511;47.970;11.774;2023-04-24T13:13:08;1.35;;;0.93;;
74158;SDS011;62511;47.970;11.774;2023-04-24T13:18:05;0.70;;;0.57;;
74158;SDS011;62511;47.970;11.774;2023-04-24T13:20:31;0.88;;;0.60;;
74158;SDS011;62511;47.970;11.774;2023-04-24T13:22:57;1.65;;;0.70;;
74158;SDS011;62511;47.970;11.774;2023-04-24T13:25:50;1.60;;;0.80;;
74158;SDS011;62511;47.970;11.774;2023-04-24T13:28:36;0.93;;;0.80;;
74158;SDS011;62511;47.970;11.774;2023-04-24T13:31:08;0.90;;;0.88;;
74158;SDS011;62511;47.970;11.774;2023-04-24T13:33:34;2.15;;;0.80;;
74158;SDS011;62511;47.970;11.774;2023-04-24T13:36:02;0.73;;;0.57;;
74158;SDS011;62511;47.970;11.774;2023-04-24T13:38:33;1.45;;;0.80;;
74158;SDS011;62511;47.970;11.774;2023-04-24T13:41:08;1.92;;;0.70;;
74158;SDS011;62511;47.970;11.774;2023-04-24T13:43:35;1.73;;;0.75;;
74158;SDS011;62511;47.970;11.774;2023-04-24T13:46:04;1.38;;;0.70;;
74158;SDS011;62511;47.970;11.774;2023-04-24T13:48:35;1.85;;;0.80;;
74158;SDS011;62511;47.970;11.774;2023-04-24T13:51:07;1.00;;;0.70;;
74158;SDS011;62511;47.970;11.774;2023-04-24T13:53:34;1.50;;;1.10;;
74158;SDS011;62511;47.970;11.774;2023-04-24T13:56:05;1.15;;;0.73;;
74158;SDS011;62511;47.970;11.774;2023-04-24T14:01:02;0.60;;;0.60;;
74158;SDS011;62511;47.970;11.774;2023-04-24T14:03:28;1.13;;;0.57;;
74158;SDS011;62511;47.970;11.774;2023-04-24T14:06:07;1.10;;;0.60;;
74158;SDS011;62511;47.970;11.774;2023-04-24T14:08:36;0.80;;;0.80;;
74158;SDS011;62511;47.970;11.774;2023-04-24T14:11:08;0.85;;;0.70;;
74158;SDS011;62511;47.970;11.774;2023-04-24T14:13:35;1.83;;;1.02;;
74158;SDS011;62511;47.970;11.774;2023-04-24T14:16:04;2.50;;;1.17;;
74158;SDS011;62511;47.970;11.774;2023-04-24T14:18:35;1.30;;;0.90;;
74158;SDS011;62511;47.970;11.774;2023-04-24T14:21:02;1.83;;;0.73;;
74158;SDS011;62511;47.970;11.774;2023-04-24T14:23:33;0.85;;;0.65;;
74158;SDS011;62511;47.970;11.774;2023-04-24T14:25:59;1.52;;;0.90;;
74158;SDS011;62511;47.970;11.774;2023-04-24T14:28:28;1.80;;;0.80;;
74158;SDS011;62511;47.970;11.774;2023-04-24T14:30:59;1.25;;;0.85;;
74158;SDS011;62511;47.970;11.774;2023-04-24T14:33:26;2.28;;;0.77;;
74158;SDS011;62511;47.970;11.774;2023-04-24T14:36:04;0.68;;;0.57;;
74158;SDS011;62511;47.970;11.774;2023-04-24T14:38:33;0.73;;;0.55;;
74158;SDS011;62511;47.970;11.774;2023-04-24T14:41:00;0.70;;;0.55;;
74158;SDS011;62511;47.970;11.774;2023-04-24T14:43:27;2.67;;;1.17;;
74158;SDS011;62511;47.970;11.774;2023-04-24T14:45:53;1.15;;;0.88;;
74158;SDS011;62511;47.970;11.774;2023-04-24T14:48:22;1.58;;;0.77;;
74158;SDS011;62511;47.970;11.774;2023-04-24T14:51:00;0.88;;;0.80;;
74158;SDS011;62511;47.970;11.774;2023-04-24T14:53:28;2.22;;;1.10;;
74158;SDS011;62511;47.970;11.774;2023-04-24T14:55:54;0.45;;;0.45;;
74158;SDS011;62511;47.970;11.774;2023-04-24T14:58:28;1.73;;;0.85;;
74158;SDS011;62511;47.970;11.774;2023-04-24T15:00:55;5.75;;;2.08;;
74158;SDS011;62511;47.970;11.774;2023-04-24T15:03:46;1.80;;;1.20;;
74158;SDS011;62511;47.970;11.774;2023-04-24T15:06:14;1.00;;;0.50;;
74158;SDS011;62511;47.970;11.774;2023-04-24T15:08:40;1.15;;;0.60;;
74158;SDS011;62511;47.970;11.774;2023-04-24T15:11:08;1.60;;;0.88;;
74158;SDS011;62511;47.970;11.774;2023-04-24T15:13:35;1.13;;;0.60;;
74158;SDS011;62511;47.970;11.774;2023-04-24T15:16:01;1.02;;;0.50;;
74158;SDS011;62511;47.970;11.774;2023-04-24T15:18:27;1.10;;;0.63;;
74158;SDS011;62511;47.970;11.774;2023-04-24T15:20:54;0.70;;;0.55;;
74158;SDS011;62511;47.970;11.774;2023-04-24T15:23:20;1.35;;;1.00;;
74158;SDS011;62511;47.970;11.774;2023-04-24T15:25:52;0.90;;;0.60;;
74158;SDS011;62511;47.970;11.774;2023-04-24T15:28:24;0.82;;;0.70;;
74158;SDS011;62511;47.970;11.774;2023-04-24T15:30:50;2.38;;;0.60;;
74158;SDS011;62511;47.970;11.774;2023-04-24T15:33:17;1.73;;;0.70;;
74158;SDS011;62511;47.970;11.774;2023-04-24T15:35:44;2.75;;;0.80;;